Time;durP1;ratioP1;P1;durP2;ratioP2;P2;SDS_P1;SDS_P2;PMS_P1;PMS_P2;Temp;Humidity;BMP_temperature;BMP_pressure;BME280_temperature;BME280_humidity;BME280_pressure;Samples;Min_cycle;Max_cycle;Signal;HPM_P1;HPM_P2
2023/06/15 00:01:29;;;;;;;12.52;8.65;;;;;;;;;;10151158;28;20048;-79
2023/06/15 00:06:23;;;;;;;9.27;7.82;;;;;;;;;;10148508;28;20396;-79
2023/06/15 00:11:16;;;;;;;10.15;8.23;;;;;;;;;;10151848;28;20056;-80
2023/06/15 00:16:12;;;;;;;9.95;7.50;;;;;;;;;;10150390;28;20123;-80
2023/06/15 00:21:08;;;;;;;12.45;7.40;;;;;;;;;;10152879;28;20054;-79
2023/06/15 00:26:01;;;;;;;10.50;8.18;;;;;;;;;;10150197;28;20106;-79
2023/06/15 00:30:56;;;;;;;10.88;9.27;;;;;;;;;;10151396;28;20052;-79
2023/06/15 00:35:49;;;;;;;12.90;8.73;;;;;;;;;;10149782;28;20048;-80
2023/06/15 00:40:45;;;;;;;9.93;8.27;;;;;;;;;;10146875;28;20053;-79
2023/06/15 00:45:40;;;;;;;16.90;8.20;;;;;;;;;;10150181;28;20044;-80
2023/06/15 00:50:36;;;;;;;10.35;8.73;;;;;;;;;;10142123;28;20502;-80
2023/06/15 00:55:34;;;;;;;15.10;12.88;;;;;;;;;;10143276;28;20072;-81
2023/06/15 01:00:29;;;;;;;20.25;13.55;;;;;;;;;;10138730;28;20135;-80
2023/06/15 01:05:24;;;;;;;19.08;16.67;;;;;;;;;;10148359;28;20503;-80
2023/06/15 01:10:20;;;;;;;22.13;19.83;;;;;;;;;;10147151;28;20048;-80
2023/06/15 01:15:13;;;;;;;29.70;21.85;;;;;;;;;;10147150;28;20478;-80
2023/06/15 01:20:09;;;;;;;26.83;22.23;;;;;;;;;;10148687;28;20060;-80
2023/06/15 01:25:29;;;;;;;27.50;20.70;;;;;;;;;;10146214;28;20110;-80
2023/06/15 01:30:23;;;;;;;21.60;18.13;;;;;;;;;;10148467;28;20052;-80
2023/06/15 01:35:18;;;;;;;17.75;14.18;;;;;;;;;;10146656;28;20110;-79
2023/06/15 01:40:13;;;;;;;15.70;13.50;;;;;;;;;;10162038;28;20040;-80
2023/06/15 01:45:08;;;;;;;23.17;15.52;;;;;;;;;;10147949;28;20127;-80
2023/06/15 01:50:02;;;;;;;25.48;16.35;;;;;;;;;;10134886;28;20045;-80
2023/06/15 01:54:56;;;;;;;18.45;16.67;;;;;;;;;;10146297;28;20056;-80
2023/06/15 01:59:51;;;;;;;20.50;16.30;;;;;;;;;;10147938;28;20084;-80
2023/06/15 02:04:44;;;;;;;20.75;15.73;;;;;;;;;;10145444;28;20044;-80
2023/06/15 02:09:38;;;;;;;20.83;14.57;;;;;;;;;;10147568;28;20049;-80
2023/06/15 02:14:33;;;;;;;17.67;13.75;;;;;;;;;;10145681;28;20040;-81
2023/06/15 02:19:28;;;;;;;17.45;14.77;;;;;;;;;;10142183;28;20076;-80
2023/06/15 02:24:21;;;;;;;28.50;15.75;;;;;;;;;;10145878;28;20472;-80
2023/06/15 02:29:14;;;;;;;19.83;14.25;;;;;;;;;;10147362;28;20044;-80
2023/06/15 02:34:08;;;;;;;19.05;13.18;;;;;;;;;;10145853;28;20060;-80
2023/06/15 02:39:02;;;;;;;19.02;14.50;;;;;;;;;;10142043;28;20422;-79
2023/06/15 02:43:56;;;;;;;22.05;14.27;;;;;;;;;;10145615;28;20068;-80
2023/06/15 02:48:52;;;;;;;23.90;13.95;;;;;;;;;;10133216;28;20079;-80
2023/06/15 02:53:47;;;;;;;18.50;15.45;;;;;;;;;;10135941;28;20052;-79
2023/06/15 02:58:42;;;;;;;18.38;15.15;;;;;;;;;;10144207;28;20087;-80
2023/06/15 03:03:43;;;;;;;19.40;16.23;;;;;;;;;;10144504;28;20086;-80
2023/06/15 03:08:38;;;;;;;22.20;16.95;;;;;;;;;;10140875;28;20040;-80
2023/06/15 03:13:40;;;;;;;21.90;16.10;;;;;;;;;;10142567;28;20052;-79
2023/06/15 03:18:34;;;;;;;19.13;16.65;;;;;;;;;;10142750;28;20388;-79
2023/06/15 03:23:28;;;;;;;20.73;16.15;;;;;;;;;;10128387;28;20078;-80
2023/06/15 03:28:27;;;;;;;21.88;15.98;;;;;;;;;;10139112;28;20056;-80
2023/06/15 03:33:21;;;;;;;23.60;15.68;;;;;;;;;;10144129;28;20053;-79
2023/06/15 03:38:16;;;;;;;19.30;15.60;;;;;;;;;;10144672;28;20070;-79
2023/06/15 03:43:11;;;;;;;15.20;13.63;;;;;;;;;;10138892;28;20064;-79
2023/06/15 03:48:06;;;;;;;17.85;15.88;;;;;;;;;;10121017;28;20470;-79
2023/06/15 03:53:02;;;;;;;18.55;15.70;;;;;;;;;;10130890;28;20048;-79
2023/06/15 03:57:56;;;;;;;15.98;14.38;;;;;;;;;;10133779;28;20049;-78
2023/06/15 04:02:49;;;;;;;17.15;15.05;;;;;;;;;;10141913;28;20503;-79
2023/06/15 04:07:44;;;;;;;16.98;13.70;;;;;;;;;;10140419;28;20072;-79
2023/06/15 04:12:37;;;;;;;16.83;11.85;;;;;;;;;;10137507;28;20052;-79
2023/06/15 04:17:30;;;;;;;11.05;9.82;;;;;;;;;;10135071;28;20077;-79
2023/06/15 04:22:25;;;;;;;15.55;10.98;;;;;;;;;;10129855;28;20049;-79
2023/06/15 04:27:19;;;;;;;19.55;11.55;;;;;;;;;;10137231;28;20048;-78
2023/06/15 04:32:14;;;;;;;14.20;11.07;;;;;;;;;;10144658;28;20052;-79
2023/06/15 04:37:08;;;;;;;14.93;11.43;;;;;;;;;;10132789;28;20059;-79
2023/06/15 04:42:02;;;;;;;15.18;11.70;;;;;;;;;;10125882;28;20053;-79
2023/06/15 04:46:57;;;;;;;15.57;12.05;;;;;;;;;;10121553;28;20474;-78
2023/06/15 04:51:50;;;;;;;16.02;13.13;;;;;;;;;;10139028;28;20143;-81
2023/06/15 04:56:44;;;;;;;19.48;14.95;;;;;;;;;;10146079;28;20061;-81
2023/06/15 05:01:38;;;;;;;19.23;14.77;;;;;;;;;;10146947;28;20056;-81
2023/06/15 05:06:38;;;;;;;15.38;11.65;;;;;;;;;;10144244;28;20049;-77
2023/06/15 05:11:31;;;;;;;13.05;11.60;;;;;;;;;;10128003;28;20079;-79
2023/06/15 05:16:26;;;;;;;17.83;13.75;;;;;;;;;;10146401;28;20060;-79
2023/06/15 05:21:20;;;;;;;14.05;10.57;;;;;;;;;;10148942;28;20053;-76
2023/06/15 05:26:15;;;;;;;16.92;12.15;;;;;;;;;;10129261;28;20047;-75
2023/06/15 05:31:33;;;;;;;24.50;15.85;;;;;;;;;;10037091;28;20615;-76
2023/06/15 05:36:30;;;;;;;21.02;16.75;;;;;;;;;;10060848;28;20129;-75
2023/06/15 05:41:46;;;;;;;20.52;18.38;;;;;;;;;;10042275;28;20057;-76
2023/06/15 05:46:39;;;;;;;20.42;18.23;;;;;;;;;;10043081;28;20450;-75
2023/06/15 05:51:33;;;;;;;20.10;13.65;;;;;;;;;;10133175;28;20053;-75
2023/06/15 05:56:26;;;;;;;22.42;14.27;;;;;;;;;;10130790;28;20052;-70
2023/06/15 06:01:20;;;;;;;28.95;14.45;;;;;;;;;;10127545;28;20061;-72
2023/06/15 06:06:14;;;;;;;21.95;13.27;;;;;;;;;;10134561;28;20083;-73
2023/06/15 06:11:09;;;;;;;15.30;11.80;;;;;;;;;;10143206;28;20028;-73
2023/06/15 06:16:09;;;;;;;22.17;16.88;;;;;;;;;;10143984;28;20055;-73
2023/06/15 06:21:03;;;;;;;15.65;13.98;;;;;;;;;;10141208;28;20040;-73
2023/06/15 06:25:57;;;;;;;17.35;11.93;;;;;;;;;;10109130;28;20049;-73
2023/06/15 06:30:52;;;;;;;23.23;17.85;;;;;;;;;;10143563;28;20105;-73
2023/06/15 06:35:48;;;;;;;17.73;15.83;;;;;;;;;;10126352;28;20397;-72
2023/06/15 06:40:42;;;;;;;20.38;16.48;;;;;;;;;;10114910;28;20303;-73
2023/06/15 06:45:36;;;;;;;29.10;21.70;;;;;;;;;;10144083;28;20053;-72
2023/06/15 06:50:30;;;;;;;21.58;17.92;;;;;;;;;;10146165;28;20142;-73
2023/06/15 06:55:23;;;;;;;19.83;16.10;;;;;;;;;;10141993;28;20056;-73
2023/06/15 07:00:18;;;;;;;23.20;15.90;;;;;;;;;;10135137;28;20060;-72
2023/06/15 07:05:12;;;;;;;15.38;13.27;;;;;;;;;;10142999;28;20495;-72
2023/06/15 07:10:06;;;;;;;12.00;10.00;;;;;;;;;;10143470;28;20095;-73
2023/06/15 07:14:58;;;;;;;14.40;11.48;;;;;;;;;;10134504;28;20064;-73
2023/06/15 07:19:52;;;;;;;12.43;10.60;;;;;;;;;;10143543;28;20052;-73
2023/06/15 07:24:46;;;;;;;9.98;8.88;;;;;;;;;;10130572;28;20127;-73
2023/06/15 07:29:41;;;;;;;6.03;5.20;;;;;;;;;;10144639;28;20060;-73
2023/06/15 07:34:35;;;;;;;8.38;5.22;;;;;;;;;;10144014;28;20052;-73
2023/06/15 07:39:30;;;;;;;9.02;5.65;;;;;;;;;;10120091;28;20131;-73
2023/06/15 07:44:26;;;;;;;12.82;9.68;;;;;;;;;;10142135;28;20049;-73
2023/06/15 07:49:20;;;;;;;10.60;9.55;;;;;;;;;;10143825;28;20097;-73
2023/06/15 07:54:32;;;;;;;11.95;9.57;;;;;;;;;;10143557;28;20072;-73
2023/06/15 07:59:25;;;;;;;12.48;6.60;;;;;;;;;;10137396;28;20135;-73
2023/06/15 08:04:19;;;;;;;8.77;7.25;;;;;;;;;;10143409;28;20546;-73
2023/06/15 08:09:14;;;;;;;9.50;6.57;;;;;;;;;;10136675;28;20049;-74
2023/06/15 08:14:07;;;;;;;9.23;5.30;;;;;;;;;;10138711;28;20040;-73
2023/06/15 08:19:00;;;;;;;6.80;5.57;;;;;;;;;;10133668;28;20092;-74
2023/06/15 08:23:53;;;;;;;6.45;4.80;;;;;;;;;;10135636;28;20083;-74
2023/06/15 08:28:47;;;;;;;5.28;4.65;;;;;;;;;;10136266;28;20120;-74
2023/06/15 08:33:46;;;;;;;9.73;3.70;;;;;;;;;;10147080;28;20052;-73
2023/06/15 08:38:39;;;;;;;7.20;4.18;;;;;;;;;;10143292;28;20675;-74
2023/06/15 08:43:34;;;;;;;6.55;4.40;;;;;;;;;;10146399;28;20556;-74
2023/06/15 08:48:28;;;;;;;7.32;4.15;;;;;;;;;;10149488;28;20496;-74
2023/06/15 08:53:23;;;;;;;5.93;4.05;;;;;;;;;;10149703;28;20678;-74
2023/06/15 08:58:17;;;;;;;7.35;4.00;;;;;;;;;;10147126;28;20056;-74
2023/06/15 09:03:10;;;;;;;4.93;4.30;;;;;;;;;;10148792;28;20048;-74
2023/06/15 09:08:04;;;;;;;9.55;3.55;;;;;;;;;;10148128;28;20053;-74
2023/06/15 09:12:58;;;;;;;6.07;3.50;;;;;;;;;;10144721;28;20459;-74
2023/06/15 09:17:59;;;;;;;5.28;3.47;;;;;;;;;;10147922;28;20059;-73
2023/06/15 09:22:57;;;;;;;4.72;3.88;;;;;;;;;;10136286;28;20052;-73
2023/06/15 09:27:54;;;;;;;6.97;3.30;;;;;;;;;;10147698;28;20080;-74
2023/06/15 09:32:47;;;;;;;10.77;5.05;;;;;;;;;;10148747;28;20052;-73
2023/06/15 09:37:41;;;;;;;4.00;3.53;;;;;;;;;;10148257;28;20106;-75
2023/06/15 09:42:35;;;;;;;3.80;3.42;;;;;;;;;;10143559;28;20128;-74
2023/06/15 09:47:29;;;;;;;9.35;3.13;;;;;;;;;;10147505;28;20056;-75
2023/06/15 09:52:24;;;;;;;3.72;2.42;;;;;;;;;;10146516;28;20098;-74
2023/06/15 09:57:19;;;;;;;2.72;2.53;;;;;;;;;;10131606;28;20138;-75
2023/06/15 10:02:13;;;;;;;3.00;2.75;;;;;;;;;;10116838;28;20048;-75
2023/06/15 10:07:13;;;;;;;2.38;2.17;;;;;;;;;;10116999;28;20535;-74
2023/06/15 10:12:13;;;;;;;2.35;2.15;;;;;;;;;;10147082;28;20052;-74
2023/06/15 10:17:09;;;;;;;7.55;2.70;;;;;;;;;;10146640;28;20048;-74
2023/06/15 10:22:08;;;;;;;7.90;2.83;;;;;;;;;;10145930;28;20102;-75
2023/06/15 10:27:02;;;;;;;6.43;2.30;;;;;;;;;;10147061;28;20048;-75
2023/06/15 10:32:18;;;;;;;2.92;2.00;;;;;;;;;;10146176;28;20135;-75
2023/06/15 10:37:18;;;;;;;2.42;2.15;;;;;;;;;;10145336;28;20041;-74
2023/06/15 10:42:14;;;;;;;2.15;1.70;;;;;;;;;;10144503;28;20438;-75
2023/06/15 10:47:12;;;;;;;5.60;2.22;;;;;;;;;;10145470;28;20044;-75
2023/06/15 10:52:06;;;;;;;2.20;1.80;;;;;;;;;;10145754;28;20068;-76
2023/06/15 10:57:00;;;;;;;3.30;2.05;;;;;;;;;;10126514;28;20499;-75
2023/06/15 11:01:53;;;;;;;3.95;1.63;;;;;;;;;;10145174;28;20052;-75
2023/06/15 11:06:56;;;;;;;2.03;1.70;;;;;;;;;;10118344;28;20052;-75
2023/06/15 11:11:53;;;;;;;3.08;1.73;;;;;;;;;;10143055;28;20056;-75
2023/06/15 11:17:00;;;;;;;2.28;1.90;;;;;;;;;;10141390;28;20053;-74
2023/06/15 11:22:04;;;;;;;5.65;2.28;;;;;;;;;;10137720;28;20404;-75
2023/06/15 11:27:02;;;;;;;3.60;1.98;;;;;;;;;;10141558;28;20055;-75
2023/06/15 11:31:56;;;;;;;1.48;1.38;;;;;;;;;;10140172;28;20090;-75
2023/06/15 11:36:50;;;;;;;1.95;1.67;;;;;;;;;;10144929;28;20063;-75
2023/06/15 11:41:48;;;;;;;2.17;2.03;;;;;;;;;;10144243;28;20045;-75
2023/06/15 11:46:42;;;;;;;2.80;1.77;;;;;;;;;;10143702;28;20090;-75
2023/06/15 11:51:36;;;;;;;4.22;1.90;;;;;;;;;;10137817;28;20055;-75
2023/06/15 11:56:30;;;;;;;2.10;1.63;;;;;;;;;;10138596;28;20086;-76
2023/06/15 12:01:26;;;;;;;5.60;1.75;;;;;;;;;;10126070;28;20135;-75
2023/06/15 12:06:24;;;;;;;5.22;2.33;;;;;;;;;;10140168;28;20052;-75
2023/06/15 12:11:26;;;;;;;3.85;2.50;;;;;;;;;;10146431;28;20720;-75
2023/06/15 12:16:19;;;;;;;2.83;1.70;;;;;;;;;;10149196;28;20125;-75
2023/06/15 12:21:17;;;;;;;4.32;1.70;;;;;;;;;;10151069;28;20045;-75
2023/06/15 12:26:16;;;;;;;3.72;1.75;;;;;;;;;;10151165;28;20496;-75
2023/06/15 12:31:11;;;;;;;3.38;1.95;;;;;;;;;;10132239;28;20045;-75
2023/06/15 12:36:12;;;;;;;2.60;2.40;;;;;;;;;;10112177;28;20041;-75
2023/06/15 12:41:12;;;;;;;3.33;1.75;;;;;;;;;;10137214;28;20049;-75
2023/06/15 12:46:06;;;;;;;4.72;2.22;;;;;;;;;;10148764;28;20056;-75
2023/06/15 12:51:00;;;;;;;1.98;1.88;;;;;;;;;;10149543;28;20139;-75
2023/06/15 12:55:53;;;;;;;3.17;1.88;;;;;;;;;;10142421;28;20075;-75
2023/06/15 13:00:48;;;;;;;1.90;1.45;;;;;;;;;;10149087;28;20559;-75
2023/06/15 13:05:42;;;;;;;3.70;1.83;;;;;;;;;;10115661;28;20063;-75
2023/06/15 13:10:36;;;;;;;2.20;1.52;;;;;;;;;;10147042;28;20091;-75
2023/06/15 13:15:29;;;;;;;3.13;1.85;;;;;;;;;;10136945;28;20049;-75
2023/06/15 13:20:22;;;;;;;7.22;2.13;;;;;;;;;;10114175;28;20060;-75
2023/06/15 13:25:18;;;;;;;4.82;2.10;;;;;;;;;;10123411;28;20094;-75
2023/06/15 13:30:13;;;;;;;7.10;2.00;;;;;;;;;;10122922;28;20504;-76
2023/06/15 13:35:08;;;;;;;7.90;2.72;;;;;;;;;;10121601;28;20102;-76
2023/06/15 13:40:08;;;;;;;2.45;1.75;;;;;;;;;;10130675;28;20053;-75
2023/06/15 13:45:09;;;;;;;2.22;2.03;;;;;;;;;;10146611;28;20052;-76
2023/06/15 13:50:05;;;;;;;4.25;1.98;;;;;;;;;;10130777;28;20045;-76
2023/06/15 13:54:58;;;;;;;;;;;;;;;;;;10110260;28;20079;-76
2023/06/15 13:59:51;;;;;;;3.03;2.13;;;;;;;;;;10116518;28;19998;-75
2023/06/15 14:04:45;;;;;;;2.95;2.25;;;;;;;;;;10132605;28;20094;-75
2023/06/15 14:09:42;;;;;;;5.40;2.30;;;;;;;;;;10135440;28;20055;-74
2023/06/15 14:14:36;;;;;;;4.28;2.90;;;;;;;;;;10146125;28;20060;-75
2023/06/15 14:19:29;;;;;;;4.10;2.80;;;;;;;;;;10140922;28;20744;-75
2023/06/15 14:24:23;;;;;;;6.40;2.60;;;;;;;;;;10146759;28;20052;-76
2023/06/15 14:29:18;;;;;;;8.60;3.17;;;;;;;;;;10146805;28;20078;-77
2023/06/15 14:34:17;;;;;;;11.15;2.95;;;;;;;;;;10120392;28;20058;-76
2023/06/15 14:39:10;;;;;;;2.97;2.42;;;;;;;;;;10144075;28;20510;-77
2023/06/15 14:44:06;;;;;;;2.85;2.47;;;;;;;;;;10146216;28;20411;-74
2023/06/15 14:49:20;;;;;;;3.10;2.80;;;;;;;;;;10144821;28;20567;-73
2023/06/15 14:54:14;;;;;;;5.43;3.22;;;;;;;;;;10144488;28;20049;-74
2023/06/15 14:59:08;;;;;;;4.40;3.20;;;;;;;;;;10095340;28;20079;-76
2023/06/15 15:04:03;;;;;;;5.05;2.92;;;;;;;;;;10097576;28;20527;-75
2023/06/15 15:08:59;;;;;;;13.85;3.30;;;;;;;;;;10098820;28;20075;-76
2023/06/15 15:13:55;;;;;;;4.20;3.20;;;;;;;;;;10110338;28;20454;-74
2023/06/15 15:18:49;;;;;;;5.43;4.20;;;;;;;;;;10143019;28;20545;-75
2023/06/15 15:23:45;;;;;;;4.82;3.05;;;;;;;;;;10141792;28;20091;-74
2023/06/15 15:28:39;;;;;;;4.70;2.92;;;;;;;;;;10129155;28;20470;-75
2023/06/15 15:33:33;;;;;;;5.13;3.10;;;;;;;;;;10132649;28;20055;-76
2023/06/15 15:38:28;;;;;;;2.95;2.75;;;;;;;;;;10117344;28;20143;-76
2023/06/15 15:43:21;;;;;;;5.75;3.65;;;;;;;;;;10117747;28;20044;-75
2023/06/15 15:48:13;;;;;;;9.13;3.72;;;;;;;;;;10120226;28;20056;-76
2023/06/15 15:53:08;;;;;;;4.22;3.65;;;;;;;;;;10122061;28;20044;-76
2023/06/15 15:58:04;;;;;;;9.07;3.95;;;;;;;;;;10122106;28;20507;-76
2023/06/15 16:02:58;;;;;;;5.35;3.63;;;;;;;;;;10145105;28;20115;-75
2023/06/15 16:07:55;;;;;;;7.80;3.67;;;;;;;;;;10144369;28;20110;-76
2023/06/15 16:12:48;;;;;;;6.93;3.65;;;;;;;;;;10143945;28;20499;-77
2023/06/15 16:17:42;;;;;;;4.43;3.00;;;;;;;;;;10130240;28;20076;-76
2023/06/15 16:22:37;;;;;;;4.40;3.97;;;;;;;;;;10140300;28;20164;-77
2023/06/15 16:27:30;;;;;;;6.97;3.60;;;;;;;;;;10130227;28;20127;-77
2023/06/15 16:32:24;;;;;;;6.72;4.03;;;;;;;;;;10132080;28;20105;-77
2023/06/15 16:37:19;;;;;;;10.45;3.67;;;;;;;;;;10145938;28;20060;-77
2023/06/15 16:42:14;;;;;;;8.20;4.40;;;;;;;;;;10151790;28;20449;-76
2023/06/15 16:47:08;;;;;;;4.80;3.78;;;;;;;;;;10150966;28;20139;-77
2023/06/15 16:52:02;;;;;;;5.18;4.07;;;;;;;;;;10146316;28;20137;-77
2023/06/15 16:56:54;;;;;;;4.50;3.58;;;;;;;;;;10143057;28;20063;-76
2023/06/15 17:01:48;;;;;;;4.35;3.95;;;;;;;;;;10131538;28;20053;-77
2023/06/15 17:06:41;;;;;;;4.97;4.20;;;;;;;;;;10142016;28;20520;-78
2023/06/15 17:11:36;;;;;;;5.82;3.53;;;;;;;;;;10121004;28;20049;-76
2023/06/15 17:16:30;;;;;;;5.18;3.25;;;;;;;;;;10113391;28;20061;-77
2023/06/15 17:21:23;;;;;;;7.57;3.47;;;;;;;;;;10111990;28;20049;-78
2023/06/15 17:26:17;;;;;;;6.43;3.65;;;;;;;;;;10126499;28;20063;-79
2023/06/15 17:31:12;;;;;;;5.97;3.38;;;;;;;;;;10114334;28;20107;-78
2023/06/15 17:36:06;;;;;;;3.97;3.58;;;;;;;;;;10145244;28;20444;-78
2023/06/15 17:40:59;;;;;;;6.10;3.20;;;;;;;;;;10149320;28;20055;-75
2023/06/15 17:45:53;;;;;;;4.95;4.22;;;;;;;;;;10150208;28;20052;-77
2023/06/15 17:50:46;;;;;;;10.80;3.92;;;;;;;;;;10140439;28;20045;-76
2023/06/15 17:55:39;;;;;;;8.50;4.20;;;;;;;;;;10134472;28;20057;-76
2023/06/15 18:00:33;;;;;;;8.90;3.88;;;;;;;;;;10127145;28;20057;-76
2023/06/15 18:05:27;;;;;;;3.80;3.35;;;;;;;;;;10142703;28;20075;-67
2023/06/15 18:10:23;;;;;;;9.52;3.20;;;;;;;;;;10117491;28;20408;-67
2023/06/15 18:15:17;;;;;;;4.13;3.50;;;;;;;;;;10119351;28;20492;-68
2023/06/15 18:20:11;;;;;;;6.85;2.90;;;;;;;;;;10107674;28;20046;-67
2023/06/15 18:25:06;;;;;;;6.05;3.78;;;;;;;;;;10112933;28;20048;-67
2023/06/15 18:30:07;;;;;;;5.53;3.65;;;;;;;;;;10141358;28;20044;-67
2023/06/15 18:35:02;;;;;;;12.73;4.13;;;;;;;;;;10146237;28;20057;-67
2023/06/15 18:39:55;;;;;;;3.80;3.45;;;;;;;;;;10141519;28;20040;-66
2023/06/15 18:44:49;;;;;;;7.50;3.60;;;;;;;;;;10141551;28;20071;-67
2023/06/15 18:50:04;;;;;;;9.48;4.40;;;;;;;;;;10114453;28;20504;-66
2023/06/15 18:54:58;;;;;;;5.63;3.33;;;;;;;;;;10126909;28;20060;-66
2023/06/15 18:59:51;;;;;;;25.88;4.60;;;;;;;;;;10124736;28;20450;-66
2023/06/15 19:04:46;;;;;;;4.07;3.13;;;;;;;;;;10144756;28;20052;-66
2023/06/15 19:09:40;;;;;;;3.47;3.13;;;;;;;;;;10142388;28;20059;-66
2023/06/15 19:14:36;;;;;;;7.30;3.05;;;;;;;;;;10142596;28;20048;-67
2023/06/15 19:19:30;;;;;;;7.20;3.70;;;;;;;;;;10095293;28;20053;-66
2023/06/15 19:24:23;;;;;;;9.65;4.70;;;;;;;;;;10144085;28;20059;-67
2023/06/15 19:29:16;;;;;;;7.55;4.72;;;;;;;;;;10126111;28;20118;-68
2023/06/15 19:34:11;;;;;;;11.90;4.57;;;;;;;;;;10143205;28;20044;-68
2023/06/15 19:39:04;;;;;;;4.97;4.28;;;;;;;;;;10143787;28;20055;-67
2023/06/15 19:43:57;;;;;;;7.10;3.90;;;;;;;;;;10143486;28;20068;-66
2023/06/15 19:48:52;;;;;;;7.20;4.60;;;;;;;;;;10126014;28;20420;-66
2023/06/15 19:53:45;;;;;;;4.43;4.03;;;;;;;;;;10130306;28;20064;-66
2023/06/15 19:58:39;;;;;;;6.97;4.35;;;;;;;;;;10093744;28;20060;-66
2023/06/15 20:03:35;;;;;;;10.68;4.40;;;;;;;;;;10116926;28;20049;-65
2023/06/15 20:08:33;;;;;;;5.50;4.82;;;;;;;;;;10103848;28;20086;-81
2023/06/15 20:13:26;;;;;;;8.70;4.37;;;;;;;;;;10106904;28;20037;-81
2023/06/15 20:18:19;;;;;;;7.38;4.78;;;;;;;;;;10130108;28;20044;-80
2023/06/15 20:23:14;;;;;;;6.55;4.28;;;;;;;;;;10141658;28;20059;-76
2023/06/15 20:28:08;;;;;;;9.80;4.68;;;;;;;;;;10132121;28;20076;-76
2023/06/15 20:33:02;;;;;;;5.88;5.32;;;;;;;;;;10124226;28;20385;-79
2023/06/15 20:37:56;;;;;;;12.88;6.68;;;;;;;;;;10125978;28;20044;-77
2023/06/15 20:42:50;;;;;;;15.70;5.35;;;;;;;;;;10116484;28;20063;-77
2023/06/15 20:47:44;;;;;;;6.65;4.80;;;;;;;;;;10147874;28;20053;-78
2023/06/15 20:52:40;;;;;;;9.15;5.05;;;;;;;;;;10151241;28;20048;-79
2023/06/15 20:57:36;;;;;;;13.80;5.55;;;;;;;;;;10124001;28;20044;-80
2023/06/15 21:02:30;;;;;;;6.93;4.30;;;;;;;;;;10114830;28;20420;-80
2023/06/15 21:07:24;;;;;;;7.75;4.82;;;;;;;;;;10149629;28;20060;-72
2023/06/15 21:12:19;;;;;;;8.48;4.43;;;;;;;;;;10148756;28;20044;-80
2023/06/15 21:17:13;;;;;;;7.90;5.28;;;;;;;;;;10143429;28;20056;-67
2023/06/15 21:22:07;;;;;;;14.40;5.45;;;;;;;;;;10149206;28;20048;-68
2023/06/15 21:27:00;;;;;;;7.68;5.80;;;;;;;;;;10134097;28;20141;-67
2023/06/15 21:31:53;;;;;;;9.85;5.10;;;;;;;;;;10137448;28;20048;-67
2023/06/15 21:36:47;;;;;;;9.93;5.50;;;;;;;;;;10122902;28;20523;-68
2023/06/15 21:41:40;;;;;;;10.80;4.78;;;;;;;;;;10098830;28;20139;-67
2023/06/15 21:46:34;;;;;;;12.50;5.32;;;;;;;;;;10112655;28;20503;-68
2023/06/15 21:51:28;;;;;;;6.35;5.22;;;;;;;;;;10119696;28;20040;-69
2023/06/15 21:56:21;;;;;;;7.15;5.18;;;;;;;;;;10109681;28;20098;-68
2023/06/15 22:01:15;;;;;;;11.93;5.60;;;;;;;;;;10139044;28;20056;-69
2023/06/15 22:06:08;;;;;;;6.95;4.88;;;;;;;;;;10130193;28;20098;-69
2023/06/15 22:11:02;;;;;;;10.75;4.80;;;;;;;;;;10131374;28;20393;-69
2023/06/15 22:15:56;;;;;;;5.55;4.72;;;;;;;;;;10130287;28;20065;-69
2023/06/15 22:20:52;;;;;;;5.50;4.95;;;;;;;;;;10130707;28;20048;-69
2023/06/15 22:25:45;;;;;;;9.60;5.28;;;;;;;;;;10121064;28;20492;-69
2023/06/15 22:30:51;;;;;;;10.65;5.15;;;;;;;;;;10114204;28;20127;-69
2023/06/15 22:35:46;;;;;;;6.68;4.90;;;;;;;;;;10125766;28;20760;-69
2023/06/15 22:40:39;;;;;;;8.88;4.70;;;;;;;;;;10130143;28;20118;-68
2023/06/15 22:45:34;;;;;;;6.35;5.75;;;;;;;;;;10139194;28;20104;-68
2023/06/15 22:50:28;;;;;;;8.63;5.47;;;;;;;;;;10142676;28;20059;-68
2023/06/15 22:55:23;;;;;;;7.35;5.75;;;;;;;;;;10143544;28;20052;-68
2023/06/15 23:00:18;;;;;;;5.93;5.32;;;;;;;;;;10119370;28;20415;-68
2023/06/15 23:05:16;;;;;;;6.85;5.38;;;;;;;;;;10143783;28;20123;-68
2023/06/15 23:10:12;;;;;;;6.68;5.30;;;;;;;;;;10144073;28;20044;-68
2023/06/15 23:15:05;;;;;;;11.50;5.78;;;;;;;;;;10137263;28;20049;-68
2023/06/15 23:20:02;;;;;;;7.88;5.90;;;;;;;;;;10139979;28;20063;-68
2023/06/15 23:24:58;;;;;;;7.93;5.78;;;;;;;;;;10129498;28;20120;-68
2023/06/15 23:29:51;;;;;;;5.78;5.18;;;;;;;;;;10121866;28;20094;-68
2023/06/15 23:34:44;;;;;;;6.10;5.50;;;;;;;;;;10145184;28;20044;-68
2023/06/15 23:39:37;;;;;;;8.90;5.25;;;;;;;;;;10143815;28;20048;-68
2023/06/15 23:44:31;;;;;;;6.50;5.60;;;;;;;;;;10141705;28;20064;-68
2023/06/15 23:49:25;;;;;;;6.55;5.85;;;;;;;;;;10132965;28;20048;-68
2023/06/15 23:54:19;;;;;;;6.72;6.13;;;;;;;;;;10121045;28;20048;-68
2023/06/15 23:59:13;;;;;;;7.40;6.32;;;;;;;;;;10127109;28;20064;-68
